createdAt,value
2017-09-23T00:00:48.240Z,6.50
2017-09-23T00:03:16.104Z,6.50
2017-09-23T00:05:43.732Z,6.40
2017-09-23T00:08:11.366Z,6.30
2017-09-23T00:10:39.040Z,6.40
2017-09-23T00:13:06.676Z,6.40
2017-09-23T00:15:35.002Z,6.30
2017-09-23T00:18:02.644Z,6.30
2017-09-23T00:20:30.295Z,6.30
2017-09-23T00:22:57.963Z,6.40
2017-09-23T00:25:25.611Z,6.40
2017-09-23T00:27:54.145Z,6.40
2017-09-23T00:30:21.807Z,6.40
2017-09-23T00:32:49.429Z,6.40
2017-09-23T00:35:17.053Z,6.40
2017-09-23T00:37:44.679Z,6.40
2017-09-23T00:40:12.365Z,6.30
2017-09-23T00:42:40.051Z,6.30
2017-09-23T00:45:08.291Z,6.30
2017-09-23T00:47:35.908Z,6.30
2017-09-23T00:50:03.691Z,6.30
2017-09-23T00:52:32.234Z,6.30
2017-09-23T00:54:59.920Z,6.30
2017-09-23T00:57:27.617Z,6.30
2017-09-23T00:59:55.356Z,6.30
2017-09-23T01:02:23.063Z,6.30
2017-09-23T01:04:50.773Z,6.30
2017-09-23T01:07:18.496Z,6.30
2017-09-23T01:09:46.199Z,6.30
2017-09-23T01:12:13.954Z,6.30
2017-09-23T01:14:41.692Z,6.30
2017-09-23T01:17:09.313Z,6.30
2017-09-23T01:19:36.994Z,6.30
2017-09-23T01:22:04.699Z,6.20
2017-09-23T01:24:32.354Z,6.20
2017-09-23T01:27:00.528Z,6.20
2017-09-23T01:29:28.157Z,6.10
2017-09-23T01:31:55.757Z,6.10
2017-09-23T01:34:23.423Z,6.10
2017-09-23T01:36:51.072Z,6.10
2017-09-23T01:39:19.435Z,6.10
2017-09-23T01:41:47.098Z,6.10
2017-09-23T01:44:14.767Z,6.10
2017-09-23T01:46:42.434Z,6.10
2017-09-23T01:49:10.111Z,6.10
2017-09-23T01:51:38.369Z,6.20
2017-09-23T01:54:06.017Z,6.20
2017-09-23T01:56:33.671Z,6.20
2017-09-23T01:59:01.350Z,6.20
2017-09-23T02:01:29.044Z,6.20
2017-09-23T02:03:57.002Z,6.10
2017-09-23T02:06:24.683Z,6.10
2017-09-23T02:08:52.390Z,6.10
2017-09-23T02:11:20.213Z,6.10
2017-09-23T02:13:47.941Z,6.00
2017-09-23T02:16:15.598Z,6.00
2017-09-23T02:18:43.483Z,6.00
2017-09-23T02:21:11.316Z,6.10
2017-09-23T02:23:39.155Z,6.10
2017-09-23T02:26:06.947Z,6.10
2017-09-23T02:28:34.735Z,6.00
2017-09-23T02:31:02.529Z,6.00
2017-09-23T02:33:30.364Z,6.00
2017-09-23T02:35:58.273Z,5.90
2017-09-23T02:38:26.287Z,5.90
2017-09-23T02:40:54.046Z,5.90
2017-09-23T02:43:21.833Z,5.80
2017-09-23T02:45:49.627Z,5.80
2017-09-23T02:48:17.406Z,5.80
2017-09-23T02:50:45.305Z,5.90
2017-09-23T02:53:13.020Z,5.90
2017-09-23T02:55:40.891Z,5.90
2017-09-23T02:58:08.687Z,5.90
2017-09-23T03:00:36.472Z,5.80
2017-09-23T03:03:05.058Z,5.80
2017-09-23T03:05:32.763Z,5.80
2017-09-23T03:08:00.622Z,5.70
2017-09-23T03:10:28.760Z,5.80
2017-09-23T03:12:56.790Z,5.80
2017-09-23T03:15:24.768Z,5.80
2017-09-23T03:17:53.026Z,5.80
2017-09-23T03:20:21.789Z,6.00
2017-09-23T03:22:50.475Z,6.00
2017-09-23T03:25:18.370Z,6.00
2017-09-23T03:27:46.333Z,6.00
2017-09-23T03:30:16.202Z,5.90
2017-09-23T03:32:44.073Z,5.90
2017-09-23T03:35:12.328Z,5.90
2017-09-23T03:37:41.150Z,5.80
2017-09-23T03:40:09.480Z,5.80
2017-09-23T03:42:37.555Z,5.80
2017-09-23T03:45:05.952Z,5.80
2017-09-23T03:47:33.890Z,5.80
2017-09-23T03:50:01.823Z,5.80
2017-09-23T03:52:29.965Z,5.80
2017-09-23T03:54:58.006Z,5.90
2017-09-23T03:57:27.204Z,5.90
2017-09-23T03:59:55.009Z,5.90
2017-09-23T04:02:22.761Z,5.90
2017-09-23T04:04:50.744Z,5.80
2017-09-23T04:07:18.685Z,5.80
2017-09-23T04:09:46.705Z,5.80
2017-09-23T04:12:14.809Z,5.80
2017-09-23T04:14:42.849Z,5.70
2017-09-23T04:17:10.777Z,5.70
2017-09-23T04:19:38.681Z,5.70
2017-09-23T04:22:06.820Z,5.60
2017-09-23T04:24:35.096Z,5.70
2017-09-23T04:27:03.246Z,5.70
2017-09-23T04:29:32.109Z,5.70
2017-09-23T04:32:01.071Z,5.80
2017-09-23T04:34:29.176Z,5.80
2017-09-23T04:36:58.411Z,5.90
2017-09-23T04:39:26.511Z,5.80
2017-09-23T04:41:54.481Z,5.90
2017-09-23T04:44:23.932Z,5.90
2017-09-23T04:46:51.812Z,5.90
2017-09-23T04:49:20.032Z,5.90
2017-09-23T04:51:48.978Z,5.90
2017-09-23T04:54:17.136Z,5.90
2017-09-23T04:56:45.094Z,5.90
2017-09-23T04:59:14.366Z,5.90
2017-09-23T05:01:42.359Z,5.90
2017-09-23T05:04:10.347Z,5.90
2017-09-23T05:06:38.658Z,5.80
2017-09-23T05:09:06.808Z,5.90
2017-09-23T05:11:35.450Z,5.90
2017-09-23T05:14:04.101Z,5.90
2017-09-23T05:16:32.032Z,6.00
2017-09-23T05:19:00.221Z,6.20
2017-09-23T05:21:28.508Z,6.40
2017-09-23T05:23:56.735Z,6.60
2017-09-23T05:26:25.897Z,6.70
2017-09-23T05:28:54.480Z,6.70
2017-09-23T05:31:22.483Z,6.80
2017-09-23T05:33:51.782Z,6.80
2017-09-23T05:36:19.843Z,7.00
2017-09-23T05:38:47.722Z,7.10
2017-09-23T05:41:15.400Z,7.30
2017-09-23T05:43:43.229Z,7.40
2017-09-23T05:46:10.906Z,7.60
2017-09-23T05:48:38.660Z,7.70
2017-09-23T05:51:06.432Z,7.90
2017-09-23T05:53:34.152Z,8.10
2017-09-23T05:56:01.831Z,8.40
2017-09-23T05:58:29.550Z,8.50
2017-09-23T06:00:57.333Z,8.70
2017-09-23T06:03:25.100Z,8.80
2017-09-23T06:05:52.833Z,8.90
2017-09-23T06:08:21.514Z,9.00
2017-09-23T06:10:49.129Z,9.00
2017-09-23T06:13:16.776Z,9.00
2017-09-23T06:15:44.478Z,9.00
2017-09-23T06:18:12.273Z,8.90
2017-09-23T06:20:39.910Z,9.00
2017-09-23T06:23:07.913Z,9.00
2017-09-23T06:25:36.103Z,9.10
2017-09-23T06:28:04.542Z,9.20
2017-09-23T06:30:32.987Z,9.20
2017-09-23T06:33:00.985Z,9.40
2017-09-23T06:35:29.372Z,9.50
2017-09-23T06:37:57.451Z,9.60
2017-09-23T06:40:25.844Z,9.70
2017-09-23T06:42:53.970Z,9.90
2017-09-23T06:45:22.556Z,10.10
2017-09-23T06:47:50.990Z,10.30
2017-09-23T06:50:19.071Z,10.40
2017-09-23T06:52:47.216Z,10.40
2017-09-23T06:55:15.481Z,10.40
2017-09-23T06:57:43.308Z,10.40
2017-09-23T07:00:11.466Z,10.40
2017-09-23T07:02:40.140Z,10.30
2017-09-23T07:05:07.915Z,10.30
2017-09-23T07:07:35.911Z,10.30
2017-09-23T07:10:03.839Z,10.20
2017-09-23T07:12:32.032Z,10.30
2017-09-23T07:14:59.909Z,10.30
2017-09-23T07:17:28.128Z,10.40
2017-09-23T07:19:56.191Z,10.50
2017-09-23T07:22:24.958Z,10.60
2017-09-23T07:24:52.721Z,10.80
2017-09-23T07:27:20.604Z,11.00
2017-09-23T07:29:48.594Z,11.20
2017-09-23T07:32:16.659Z,11.50
2017-09-23T07:34:44.615Z,11.80
2017-09-23T07:37:12.586Z,12.00
2017-09-23T07:39:40.353Z,12.20
2017-09-23T07:42:08.089Z,12.50
2017-09-23T07:44:36.026Z,12.90
2017-09-23T07:47:03.691Z,13.50
2017-09-23T07:49:31.397Z,14.30
2017-09-23T07:51:59.106Z,15.20
2017-09-23T07:54:26.816Z,15.70
2017-09-23T07:56:54.559Z,16.10
2017-09-23T07:59:22.258Z,16.10
2017-09-23T08:01:49.904Z,16.10
2017-09-23T08:04:17.617Z,16.30
2017-09-23T08:06:45.477Z,16.50
2017-09-23T08:09:13.742Z,16.70
2017-09-23T08:11:41.570Z,17.10
2017-09-23T08:14:09.332Z,17.80
2017-09-23T08:16:36.962Z,18.30
2017-09-23T08:19:04.663Z,18.80
2017-09-23T08:21:32.351Z,19.10
2017-09-23T08:24:00.119Z,18.80
2017-09-23T08:26:28.107Z,18.50
2017-09-23T08:28:55.830Z,18.20
2017-09-23T08:31:24.291Z,17.80
2017-09-23T08:33:51.929Z,17.40
2017-09-23T08:36:19.568Z,17.20
2017-09-23T08:38:47.205Z,17.50
2017-09-23T08:41:14.844Z,17.60
2017-09-23T08:43:42.549Z,17.80
2017-09-23T08:46:10.207Z,17.40
2017-09-23T08:48:37.907Z,17.30
2017-09-23T08:51:05.553Z,17.10
2017-09-23T08:53:33.141Z,16.90
2017-09-23T08:56:00.815Z,16.70
2017-09-23T08:58:29.213Z,16.00
2017-09-23T09:00:56.841Z,16.00
2017-09-23T09:03:24.650Z,15.90
2017-09-23T09:05:52.310Z,15.70
2017-09-23T09:08:19.910Z,15.60
2017-09-23T09:10:47.585Z,15.40
2017-09-23T09:13:15.215Z,15.40
2017-09-23T09:15:42.904Z,15.40
2017-09-23T09:18:10.613Z,15.40
2017-09-23T09:20:38.363Z,15.40
2017-09-23T09:23:06.017Z,15.40
2017-09-23T09:25:33.658Z,15.40
2017-09-23T09:28:01.325Z,15.50
2017-09-23T09:30:28.913Z,15.50
2017-09-23T09:32:56.650Z,15.50
2017-09-23T09:35:25.112Z,15.50
2017-09-23T09:37:52.830Z,15.50
2017-09-23T09:40:20.546Z,15.40
2017-09-23T09:42:48.150Z,15.20
2017-09-23T09:45:15.781Z,15.10
2017-09-23T09:47:44.195Z,15.00
2017-09-23T09:50:11.902Z,15.00
2017-09-23T09:52:39.543Z,14.90
2017-09-23T09:55:07.186Z,14.80
2017-09-23T09:57:34.818Z,14.80
2017-09-23T10:00:02.441Z,14.90
2017-09-23T10:02:30.104Z,14.80
2017-09-23T10:04:57.760Z,14.90
2017-09-23T10:07:25.404Z,15.00
2017-09-23T10:09:53.039Z,15.20
2017-09-23T10:12:21.438Z,15.40
2017-09-23T10:14:49.148Z,15.50
2017-09-23T10:17:18.651Z,15.40
2017-09-23T10:19:46.318Z,15.50
2017-09-23T10:22:13.940Z,15.50
2017-09-23T10:24:41.592Z,15.70
2017-09-23T10:27:09.206Z,15.70
2017-09-23T10:29:37.457Z,15.80
2017-09-23T10:32:05.099Z,15.90
2017-09-23T10:34:32.805Z,16.10
2017-09-23T10:37:00.491Z,16.50
2017-09-23T10:39:28.136Z,16.90
2017-09-23T10:41:56.718Z,17.00
2017-09-23T10:44:24.412Z,17.50
2017-09-23T10:46:52.097Z,17.80
2017-09-23T10:49:19.818Z,18.00
2017-09-23T10:51:51.943Z,17.40
2017-09-23T10:54:19.663Z,17.40
2017-09-23T10:56:48.088Z,17.70
2017-09-23T10:59:15.851Z,17.70
2017-09-23T11:01:43.508Z,17.80
2017-09-23T11:04:11.170Z,17.80
2017-09-23T11:06:38.823Z,17.60
2017-09-23T11:09:06.464Z,17.40
2017-09-23T11:11:34.370Z,17.10
2017-09-23T11:14:02.086Z,17.20
2017-09-23T11:16:30.516Z,17.80
2017-09-23T11:18:58.144Z,17.70
2017-09-23T11:21:29.482Z,17.50
2017-09-23T11:23:57.114Z,17.00
2017-09-23T11:26:24.746Z,16.60
2017-09-23T11:28:52.396Z,16.40
2017-09-23T11:31:20.086Z,15.90
2017-09-23T11:33:47.730Z,15.50
2017-09-23T11:36:15.380Z,15.20
2017-09-23T11:38:43.031Z,15.00
2017-09-23T11:41:11.463Z,14.60
2017-09-23T11:43:39.130Z,14.60
2017-09-23T11:46:06.810Z,14.40
2017-09-23T11:48:35.127Z,14.30
2017-09-23T11:51:03.038Z,14.20
2017-09-23T11:53:30.722Z,14.20
2017-09-23T11:55:58.355Z,14.20
2017-09-23T11:58:26.017Z,14.30
2017-09-23T12:00:54.971Z,14.20
2017-09-23T12:03:22.647Z,14.30
2017-09-23T12:05:50.309Z,14.40
2017-09-23T12:08:17.889Z,14.40
2017-09-23T12:10:45.539Z,14.40
2017-09-23T12:13:13.217Z,14.40
2017-09-23T12:15:40.953Z,14.40
2017-09-23T12:18:16.560Z,14.40
2017-09-23T12:20:44.975Z,14.30
2017-09-23T12:23:12.662Z,14.30
2017-09-23T12:25:40.558Z,14.30
2017-09-23T12:28:08.234Z,14.20
2017-09-23T12:30:36.627Z,14.00
2017-09-23T12:33:04.258Z,14.00
2017-09-23T12:35:31.920Z,14.10
2017-09-23T12:38:00.343Z,14.00
2017-09-23T12:40:27.937Z,14.00
2017-09-23T12:42:55.583Z,13.90
2017-09-23T12:45:23.227Z,13.90
2017-09-23T12:47:50.870Z,13.80
2017-09-23T12:50:18.530Z,13.70
2017-09-23T12:52:48.102Z,13.40
2017-09-23T12:55:15.717Z,13.40
2017-09-23T12:57:45.624Z,13.40
2017-09-23T13:00:13.249Z,13.30
2017-09-23T13:02:40.831Z,13.20
2017-09-23T13:05:09.235Z,13.10
2017-09-23T13:07:36.857Z,13.10
2017-09-23T13:10:04.456Z,13.10
2017-09-23T13:12:34.181Z,13.10
2017-09-23T13:15:01.764Z,13.10
2017-09-23T13:17:29.419Z,13.00
2017-09-23T13:19:57.043Z,13.00
2017-09-23T13:22:24.672Z,12.90
2017-09-23T13:24:52.317Z,12.90
2017-09-23T13:27:19.948Z,12.80
2017-09-23T13:29:47.600Z,12.80
2017-09-23T13:32:16.026Z,12.80
2017-09-23T13:34:43.600Z,12.80
2017-09-23T13:37:12.407Z,12.80
2017-09-23T13:39:40.082Z,12.80
2017-09-23T13:42:07.706Z,12.80
2017-09-23T13:44:35.309Z,12.80
2017-09-23T13:47:02.886Z,12.80
2017-09-23T13:49:30.496Z,12.70
2017-09-23T13:51:58.987Z,12.80
2017-09-23T13:54:27.390Z,12.70
2017-09-23T13:56:55.051Z,12.70
2017-09-23T13:59:22.698Z,12.70
2017-09-23T14:01:50.412Z,12.70
2017-09-23T14:04:18.035Z,12.70
2017-09-23T14:06:49.273Z,12.60
2017-09-23T14:09:16.834Z,12.60
2017-09-23T14:11:44.401Z,12.60
2017-09-23T14:14:11.990Z,12.60
2017-09-23T14:16:39.583Z,12.50
2017-09-23T14:19:07.198Z,12.60
2017-09-23T14:21:34.845Z,12.60
2017-09-23T14:24:02.716Z,12.60
2017-09-23T14:26:30.407Z,12.60
2017-09-23T14:28:58.063Z,12.50
2017-09-23T14:31:25.649Z,12.50
2017-09-23T14:33:53.281Z,12.50
2017-09-23T14:36:20.902Z,12.50
2017-09-23T14:38:49.222Z,12.40
2017-09-23T14:41:16.809Z,12.40
2017-09-23T14:43:44.429Z,12.40
2017-09-23T14:46:13.522Z,12.30
2017-09-23T14:48:46.708Z,12.30
2017-09-23T14:51:14.398Z,12.30
2017-09-23T14:53:42.224Z,12.20
2017-09-23T14:56:09.942Z,12.10
2017-09-23T14:58:37.676Z,12.00
2017-09-23T15:01:05.404Z,11.90
2017-09-23T15:03:33.138Z,11.90
2017-09-23T15:06:00.905Z,11.80
2017-09-23T15:08:28.635Z,11.80
2017-09-23T15:10:57.106Z,11.80
2017-09-23T15:13:25.603Z,11.80
2017-09-23T15:15:53.394Z,11.80
2017-09-23T15:18:26.362Z,11.80
2017-09-23T15:20:54.059Z,11.70
2017-09-23T15:23:21.790Z,11.70
2017-09-23T15:25:49.520Z,11.70
2017-09-23T15:28:17.296Z,11.70
2017-09-23T15:30:45.802Z,11.50
2017-09-23T15:33:13.514Z,11.50
2017-09-23T15:35:45.938Z,11.50
2017-09-23T15:38:13.662Z,11.50
2017-09-23T15:40:41.454Z,11.50
2017-09-23T15:43:09.238Z,11.50
2017-09-23T15:45:37.040Z,11.40
2017-09-23T15:48:04.838Z,11.40
2017-09-23T15:50:32.602Z,11.30
2017-09-23T15:53:01.141Z,11.30
2017-09-23T15:55:28.881Z,11.30
2017-09-23T15:58:02.167Z,11.30
2017-09-23T16:00:29.964Z,11.30
2017-09-23T16:02:57.779Z,11.30
2017-09-23T16:05:25.601Z,11.30
2017-09-23T16:07:53.335Z,11.20
2017-09-23T16:10:21.011Z,11.30
2017-09-23T16:12:48.746Z,11.30
2017-09-23T16:15:16.477Z,11.20
2017-09-23T16:17:44.976Z,11.20
2017-09-23T16:20:12.721Z,11.20
2017-09-23T16:22:40.455Z,11.20
2017-09-23T16:25:08.210Z,11.20
2017-09-23T16:27:35.899Z,11.20
2017-09-23T16:30:03.635Z,11.20
2017-09-23T16:32:31.340Z,11.20
2017-09-23T16:34:59.844Z,11.10
2017-09-23T16:37:27.584Z,11.10
2017-09-23T16:39:56.073Z,11.10
2017-09-23T16:42:23.802Z,11.10
2017-09-23T16:44:51.523Z,11.10
2017-09-23T16:47:19.299Z,11.10
2017-09-23T16:49:47.128Z,11.10
2017-09-23T16:52:14.852Z,11.10
2017-09-23T16:54:42.543Z,11.10
2017-09-23T16:57:10.321Z,11.10
2017-09-23T16:59:38.043Z,11.10
2017-09-23T17:02:05.842Z,11.00
2017-09-23T17:04:34.355Z,11.00
2017-09-23T17:07:02.188Z,11.00
2017-09-23T17:09:30.081Z,11.00
2017-09-23T17:11:57.867Z,11.00
2017-09-23T17:14:25.604Z,11.00
2017-09-23T17:16:53.403Z,11.00
2017-09-23T17:19:21.173Z,11.00
2017-09-23T17:21:48.878Z,11.00
2017-09-23T17:24:16.617Z,11.00
2017-09-23T17:26:44.347Z,11.00
2017-09-23T17:29:12.220Z,10.90
2017-09-23T17:31:40.941Z,10.90
2017-09-23T17:34:08.696Z,10.90
2017-09-23T17:36:36.413Z,10.90
2017-09-23T17:39:05.824Z,10.90
2017-09-23T17:41:33.513Z,10.90
2017-09-23T17:44:01.264Z,10.90
2017-09-23T17:46:28.993Z,10.90
2017-09-23T17:48:56.780Z,10.90
2017-09-23T17:51:24.501Z,10.90
2017-09-23T17:53:52.276Z,10.90
2017-09-23T17:56:19.985Z,10.90
2017-09-23T17:58:47.700Z,10.90
2017-09-23T18:01:15.558Z,10.90
2017-09-23T18:03:43.294Z,10.90
2017-09-23T18:06:11.019Z,10.90
2017-09-23T18:08:38.713Z,10.90
2017-09-23T18:11:06.480Z,10.90
2017-09-23T18:13:35.013Z,10.90
2017-09-23T18:16:02.784Z,10.90
2017-09-23T18:18:30.483Z,10.90
2017-09-23T18:20:58.247Z,10.90
2017-09-23T18:23:25.955Z,10.90
2017-09-23T18:25:54.644Z,10.90
2017-09-23T18:28:23.165Z,10.90
2017-09-23T18:30:50.908Z,10.90
2017-09-23T18:33:18.581Z,10.90
2017-09-23T18:35:47.154Z,10.90
2017-09-23T18:38:16.629Z,10.90
2017-09-23T18:40:44.429Z,11.00
2017-09-23T18:43:12.187Z,11.00
2017-09-23T18:45:39.937Z,11.10
2017-09-23T18:48:11.041Z,11.10
2017-09-23T18:50:38.801Z,11.00
2017-09-23T18:53:06.612Z,11.00
2017-09-23T18:55:34.343Z,11.00
2017-09-23T18:58:02.081Z,10.90
2017-09-23T19:00:29.794Z,10.90
2017-09-23T19:02:57.520Z,10.90
2017-09-23T19:05:26.041Z,10.80
2017-09-23T19:07:57.273Z,10.80
2017-09-23T19:10:24.983Z,10.80
2017-09-23T19:12:52.792Z,10.80
2017-09-23T19:15:20.564Z,10.80
2017-09-23T19:17:48.336Z,10.80
2017-09-23T19:20:16.936Z,10.80
2017-09-23T19:22:44.699Z,10.80
2017-09-23T19:25:12.413Z,10.80
2017-09-23T19:27:40.113Z,10.70
2017-09-23T19:30:07.887Z,10.70
2017-09-23T19:32:35.693Z,10.80
2017-09-23T19:35:03.411Z,10.80
2017-09-23T19:37:31.430Z,10.80
2017-09-23T19:39:59.176Z,10.80
2017-09-23T19:42:26.892Z,10.80
2017-09-23T19:44:54.618Z,10.80
2017-09-23T19:47:22.397Z,10.80
2017-09-23T19:49:50.103Z,10.80
2017-09-23T19:52:17.892Z,10.80
2017-09-23T19:54:45.622Z,10.80
2017-09-23T19:57:13.364Z,10.70
2017-09-23T19:59:42.820Z,10.80
2017-09-23T20:02:11.174Z,10.80
2017-09-23T20:04:41.346Z,10.70
2017-09-23T20:07:09.191Z,10.70
2017-09-23T20:09:36.936Z,10.70
2017-09-23T20:12:04.701Z,10.70
2017-09-23T20:14:32.397Z,10.70
2017-09-23T20:17:00.111Z,10.70
2017-09-23T20:19:27.827Z,10.80
2017-09-23T20:21:55.568Z,10.80
2017-09-23T20:24:23.287Z,10.80
2017-09-23T20:26:50.969Z,10.80
2017-09-23T20:29:18.670Z,10.80
2017-09-23T20:31:46.355Z,10.80
2017-09-23T20:34:14.073Z,10.80
2017-09-23T20:36:41.829Z,10.90
2017-09-23T20:39:09.559Z,10.80
2017-09-23T20:41:37.287Z,10.80
2017-09-23T20:44:05.049Z,10.80
2017-09-23T20:46:32.730Z,10.80
2017-09-23T20:49:00.484Z,10.80
2017-09-23T20:51:28.244Z,10.80
2017-09-23T20:53:55.956Z,10.80
2017-09-23T20:56:23.704Z,10.80
2017-09-23T20:58:52.171Z,10.90
2017-09-23T21:01:19.880Z,10.80
2017-09-23T21:03:47.599Z,10.80
2017-09-23T21:06:15.363Z,10.80
2017-09-23T21:08:43.052Z,10.90
2017-09-23T21:11:10.762Z,10.90
2017-09-23T21:13:38.469Z,10.90
2017-09-23T21:16:06.223Z,10.90
2017-09-23T21:18:33.978Z,10.80
2017-09-23T21:21:01.720Z,10.80
2017-09-23T21:23:29.464Z,10.80
2017-09-23T21:25:57.144Z,10.80
2017-09-23T21:28:24.855Z,10.80
2017-09-23T21:30:52.524Z,10.80
2017-09-23T21:33:20.234Z,10.80
2017-09-23T21:35:47.976Z,10.80
2017-09-23T21:38:15.722Z,10.80
2017-09-23T21:40:43.469Z,10.80
2017-09-23T21:43:11.211Z,10.80
2017-09-23T21:45:38.964Z,10.80
2017-09-23T21:48:06.719Z,10.80
2017-09-23T21:50:34.856Z,10.80
2017-09-23T21:53:02.569Z,10.80
2017-09-23T21:55:30.282Z,10.80
2017-09-23T21:57:57.957Z,10.80
2017-09-23T22:00:27.958Z,10.80
2017-09-23T22:02:56.823Z,10.70
2017-09-23T22:05:25.097Z,10.70
2017-09-23T22:07:53.262Z,10.70
2017-09-23T22:10:21.652Z,10.70
2017-09-23T22:12:50.238Z,10.60
2017-09-23T22:15:18.714Z,10.60
2017-09-23T22:17:47.197Z,10.60
2017-09-23T22:20:15.862Z,10.60
2017-09-23T22:22:44.570Z,10.60
2017-09-23T22:25:13.403Z,10.60
2017-09-23T22:27:41.764Z,10.60
2017-09-23T22:30:10.579Z,10.60
2017-09-23T22:32:38.478Z,10.60
2017-09-23T22:35:06.727Z,10.60
2017-09-23T22:37:35.051Z,10.60
2017-09-23T22:40:03.381Z,10.70
2017-09-23T22:42:31.562Z,10.70
2017-09-23T22:44:59.623Z,10.70
2017-09-23T22:47:27.851Z,10.70
2017-09-23T22:49:56.333Z,10.70
2017-09-23T22:52:25.428Z,10.70
2017-09-23T22:54:53.515Z,10.70
2017-09-23T22:57:22.245Z,10.70
2017-09-23T22:59:51.122Z,10.70
2017-09-23T23:02:19.440Z,10.70
2017-09-23T23:04:47.453Z,10.70
2017-09-23T23:07:15.468Z,10.70
2017-09-23T23:09:43.656Z,10.70
2017-09-23T23:12:13.206Z,10.70
2017-09-23T23:14:41.720Z,10.70
2017-09-23T23:17:10.910Z,10.70
2017-09-23T23:19:39.440Z,10.70
2017-09-23T23:22:07.804Z,10.70
2017-09-23T23:24:38.037Z,10.80
2017-09-23T23:27:06.781Z,10.80
2017-09-23T23:29:36.179Z,10.70
2017-09-23T23:32:07.537Z,10.70
2017-09-23T23:34:36.104Z,10.70
2017-09-23T23:37:04.548Z,10.70
2017-09-23T23:39:33.056Z,10.70
2017-09-23T23:42:01.331Z,10.60
2017-09-23T23:44:29.784Z,10.60
2017-09-23T23:46:58.056Z,10.60
2017-09-23T23:49:26.391Z,10.60
2017-09-23T23:51:54.614Z,10.60
2017-09-23T23:54:24.161Z,10.60
2017-09-23T23:56:52.384Z,10.60
2017-09-23T23:59:20.718Z,10.60
